Time;durP1;ratioP1;P1;durP2;ratioP2;P2;SDS_P1;SDS_P2;PMS_P1;PMS_P2;Temp;Humidity;BMP_temperature;BMP_pressure;BME280_temperature;BME280_humidity;BME280_pressure;Samples;Min_cycle;Max_cycle;Signal;HPM_P1;HPM_P2
2023/11/07 00:01:02;;;;;;;;;3.33;3.33;;;;;14.64;81.53;100197.88;6238041;22;44758;-82
2023/11/07 00:03:27;;;;;;;;;2.00;2.00;;;;;14.67;81.65;100196.97;6238007;22;44798;-81
2023/11/07 00:05:53;;;;;;;;;2.00;2.00;;;;;14.68;81.35;100204.09;6238076;22;44812;-82
2023/11/07 00:08:18;;;;;;;;;4.00;4.00;;;;;14.63;81.44;100190.78;6210395;22;46509;-82
2023/11/07 00:10:43;;;;;;;;;4.00;4.00;;;;;14.67;81.29;100202.34;6238048;22;44761;-82
2023/11/07 00:13:09;;;;;;;;;4.00;3.25;;;;;14.65;81.37;100199.66;6237358;22;45180;-81
2023/11/07 00:18:58;;;;;;;;;2.50;2.50;;;;;14.82;81.13;100201.25;6237231;22;44838;-81
2023/11/07 00:21:23;;;;;;;;;3.00;3.00;;;;;14.74;80.86;100201.34;6210084;22;58223;-81
2023/11/07 00:23:49;;;;;;;;;5.50;3.00;;;;;14.75;81.02;100195.09;6210370;22;44757;-82
2023/11/07 00:26:14;;;;;;;;;2.75;2.75;;;;;14.74;80.81;100196.00;6234837;22;44661;-81
2023/11/07 00:28:40;;;;;;;;;3.00;3.00;;;;;14.75;80.60;100200.47;6236978;22;44881;-82
2023/11/07 00:31:06;;;;;;;;;3.00;3.00;;;;;14.81;80.70;100205.72;6210327;22;44760;-81
2023/11/07 00:33:31;;;;;;;;;3.00;3.00;;;;;14.81;80.38;100208.41;6210219;22;44888;-82
2023/11/07 00:35:58;;;;;;;;;2.67;2.67;;;;;14.86;80.50;100211.03;6237595;22;44823;-82
2023/11/07 00:38:25;;;;;;;;;2.00;2.00;;;;;14.77;80.35;100209.34;6210927;22;47953;-82
2023/11/07 00:40:51;;;;;;;;;2.00;2.00;;;;;14.73;80.33;100218.31;6211009;22;44833;-82
2023/11/07 00:43:17;;;;;;;;;3.00;3.00;;;;;14.75;80.12;100216.50;6237812;22;44709;-81
2023/11/07 00:45:43;;;;;;;;;3.00;3.00;;;;;14.73;79.97;100213.84;6238564;22;44689;-81
2023/11/07 00:48:09;;;;;;;;;3.50;2.00;;;;;14.72;79.84;100221.88;6210157;22;46932;-82
2023/11/07 00:50:35;;;;;;;;;6.25;4.00;;;;;14.74;79.70;100220.06;6210587;22;45068;-81
2023/11/07 00:53:00;;;;;;;;;1.25;1.25;;;;;14.69;79.74;100219.25;6187885;22;45226;-81
2023/11/07 00:55:26;;;;;;;;;3.75;3.75;;;;;14.69;79.43;100224.63;6179873;23;44823;-82
2023/11/07 00:57:51;;;;;;;;;3.00;3.00;;;;;14.72;79.35;100232.59;6180007;23;47222;-82
2023/11/07 01:00:17;;;;;;;;;2.00;2.00;;;;;14.68;79.47;100231.72;6206279;22;44731;-81
2023/11/07 01:02:42;;;;;;;;;1.50;1.50;;;;;14.65;79.43;100223.75;6179915;22;44825;-83
2023/11/07 01:05:09;;;;;;;;;3.75;2.00;;;;;14.81;79.17;100229.81;6180118;23;44882;-82
2023/11/07 01:07:34;;;;;;;;;2.00;2.00;;;;;14.67;79.04;100234.44;6179795;22;47061;-82
2023/11/07 01:09:59;;;;;;;;;3.00;3.00;;;;;14.64;78.79;100231.78;6179294;23;44883;-82
2023/11/07 01:12:25;;;;;;;;;1.00;1.00;;;;;14.59;78.84;100226.50;6180738;23;44895;-82
2023/11/07 01:14:50;;;;;;;;;1.00;1.00;;;;;14.57;78.76;100231.88;6180300;23;44885;-82
2023/11/07 01:17:16;;;;;;;;;2.00;2.00;;;;;14.56;78.84;100243.47;6180830;23;47268;-82
2023/11/07 01:19:41;;;;;;;;;0.75;0.75;;;;;14.50;78.68;100240.84;6206835;22;45331;-82
2023/11/07 01:22:07;;;;;;;;;2.00;2.00;;;;;14.50;78.40;100243.50;6155709;22;44811;-82
2023/11/07 01:24:32;;;;;;;;;1.67;1.67;;;;;14.52;78.16;100239.03;6207048;22;44733;-81
2023/11/07 01:26:57;;;;;;;;;2.00;1.00;;;;;14.50;78.09;100240.84;6179775;23;47108;-82
2023/11/07 01:29:24;;;;;;;;;1.00;1.00;;;;;14.64;78.12;100250.53;6180131;22;44666;-82
2023/11/07 01:31:49;;;;;;;;;1.00;0.67;;;;;14.48;78.12;100255.09;6180728;23;44763;-81
2023/11/07 01:34:15;;;;;;;;;1.00;1.00;;;;;14.53;77.96;100261.31;6207706;22;44876;-81
2023/11/07 01:36:41;;;;;;;;;1.00;1.00;;;;;14.51;77.96;100263.13;6179428;23;47114;-81
2023/11/07 01:39:08;;;;;;;;;1.00;1.00;;;;;14.50;77.83;100264.00;6205825;22;44704;-81
2023/11/07 01:41:33;;;;;;;;;2.67;1.00;;;;;14.48;77.65;100261.38;6180655;23;44844;-81
2023/11/07 01:44:00;;;;;;;;;1.33;1.33;;;;;14.51;77.53;100263.13;6174843;22;44880;-81
2023/11/07 01:46:27;;;;;;;;;0.50;0.50;;;;;14.47;77.57;100262.25;6179418;23;47039;-81
2023/11/07 01:48:58;;;;;;;;;0.00;0.00;;;;;14.55;77.52;100244.34;6179740;23;45157;-81
2023/11/07 01:51:25;;;;;;;;;0.00;0.00;;;;;14.45;77.77;100272.09;6204087;22;44908;-80
2023/11/07 01:53:52;;;;;;;;;0.00;0.00;;;;;14.24;77.79;100253.53;6207458;22;44782;-81
2023/11/07 01:56:18;;;;;;;;;1.00;1.00;;;;;14.23;77.69;100267.84;6206248;22;46053;-81
2023/11/07 01:58:45;;;;;;;;;1.00;1.00;;;;;14.27;77.81;100281.16;6162553;22;46285;-82
2023/11/07 02:01:13;;;;;;;;;2.00;2.00;;;;;14.12;77.88;100270.59;6176504;23;45180;-82
2023/11/07 02:03:38;;;;;;;;;1.00;1.00;;;;;14.16;77.91;100283.06;6150309;23;44833;-83
2023/11/07 02:06:06;;;;;;;;;0.00;0.00;;;;;14.14;77.86;100271.47;6149823;23;46892;-83
2023/11/07 02:08:31;;;;;;;;;1.00;1.00;;;;;14.05;78.26;100288.47;6176464;23;44849;-83
2023/11/07 02:10:56;;;;;;;;;0.00;0.00;;;;;14.01;78.68;100286.72;6176027;23;45256;-83
2023/11/07 02:13:22;;;;;;;;;0.33;0.33;;;;;13.91;78.10;100291.22;6176458;23;44741;-82
2023/11/07 02:15:48;;;;;;;;;1.00;1.00;;;;;13.83;78.69;100292.19;6175589;23;45146;-83
2023/11/07 02:18:13;;;;;;;;;1.75;1.75;;;;;13.85;78.74;100290.41;6174954;23;44781;-82
2023/11/07 02:20:39;;;;;;;;;2.33;1.00;;;;;13.78;79.00;100294.91;6175866;23;44795;-82
2023/11/07 02:23:10;;;;;;;;;1.00;1.00;;;;;13.91;79.25;100307.28;6149155;23;44919;-83
2023/11/07 02:25:38;;;;;;;;;2.00;0.25;;;;;13.69;79.53;100305.63;6175627;23;45132;-83
2023/11/07 02:28:05;;;;;;;;;1.33;1.33;;;;;13.61;79.28;100294.97;6176188;23;44755;-83
2023/11/07 02:30:32;;;;;;;;;1.00;1.00;;;;;13.57;79.19;100303.91;6150313;23;44893;-81
2023/11/07 02:33:04;;;;;;;;;0.50;0.50;;;;;13.63;79.35;100298.53;6149616;23;44798;-81
2023/11/07 02:35:30;;;;;;;;;1.00;1.00;;;;;13.56;79.60;100318.19;6147848;23;47140;-81
2023/11/07 02:37:55;;;;;;;;;1.00;1.00;;;;;13.45;79.45;100304.84;6150362;23;44942;-82
2023/11/07 02:40:20;;;;;;;;;0.67;0.67;;;;;13.47;79.25;100310.19;6150134;23;44887;-81
2023/11/07 02:42:46;;;;;;;;;0.50;0.50;;;;;13.42;79.19;100309.34;6150351;23;44838;-82
2023/11/07 02:45:12;;;;;;;;;1.00;1.00;;;;;13.43;79.07;100303.97;6150125;23;47160;-81
2023/11/07 02:47:37;;;;;;;;;2.00;2.00;;;;;13.38;79.15;100312.00;6176655;23;44817;-82
2023/11/07 02:50:03;;;;;;;;;0.00;0.00;;;;;13.39;78.98;100315.56;6149824;23;44700;-82
2023/11/07 02:52:28;;;;;;;;;1.00;1.00;;;;;13.29;79.35;100303.13;6175358;23;44791;-81
2023/11/07 02:54:53;;;;;;;;;2.00;1.00;;;;;13.31;79.49;100307.63;6175882;23;45136;-81
2023/11/07 02:57:19;;;;;;;;;1.00;1.00;;;;;13.23;79.59;100312.06;6175034;23;44926;-81
2023/11/07 02:59:47;;;;;;;;;1.00;1.00;;;;;13.23;79.39;100312.06;6194519;22;44833;-81
2023/11/07 03:02:15;;;;;;;;;1.33;1.33;;;;;13.20;79.46;100310.28;6207706;22;44742;-82
2023/11/07 03:04:42;;;;;;;;;2.00;1.25;;;;;13.16;79.61;100312.97;6179320;22;47292;-81
2023/11/07 03:07:07;;;;;;;;;2.00;2.00;;;;;13.17;79.39;100312.09;6206050;23;44732;-82
2023/11/07 03:09:33;;;;;;;;;1.67;1.67;;;;;13.19;79.70;100307.63;6206420;22;44977;-81
2023/11/07 03:11:58;;;;;;;;;3.00;3.00;;;;;13.12;79.69;100312.09;6205587;22;44820;-82
2023/11/07 03:14:23;;;;;;;;;2.33;1.33;;;;;13.06;79.65;100304.09;6206354;22;45145;-82
2023/11/07 03:16:49;;;;;;;;;2.00;2.00;;;;;13.12;79.71;100317.41;6206158;22;44784;-82
2023/11/07 03:19:14;;;;;;;;;1.00;1.00;;;;;13.12;79.76;100313.88;6205915;22;44784;-82
2023/11/07 03:21:40;;;;;;;;;3.00;1.00;;;;;13.08;79.71;100307.66;6180136;22;44807;-82
2023/11/07 03:24:10;;;;;;;;;1.00;1.00;;;;;13.27;79.94;100315.59;6205621;22;45232;-83
2023/11/07 03:26:35;;;;;;;;;2.00;2.00;;;;;13.10;79.81;100316.53;6206103;23;44760;-82
2023/11/07 03:29:01;;;;;;;;;0.67;0.67;;;;;13.16;80.06;100326.31;6202438;22;45189;-82
2023/11/07 03:31:26;;;;;;;;;1.00;1.00;;;;;13.11;80.09;100317.41;6180716;22;45248;-82
2023/11/07 03:33:52;;;;;;;;;3.00;2.00;;;;;13.13;79.74;100316.53;6179483;22;47048;-82
2023/11/07 03:36:17;;;;;;;;;2.67;2.67;;;;;13.13;79.72;100310.31;6178351;22;44817;-82
2023/11/07 03:38:44;;;;;;;;;3.00;3.00;;;;;13.23;79.87;100311.16;6205887;22;44838;-82
2023/11/07 03:41:10;;;;;;;;;2.33;1.67;;;;;13.14;79.65;100326.31;6204218;22;44821;-82
2023/11/07 03:43:36;;;;;;;;;4.00;2.33;;;;;13.06;79.35;100311.22;6204269;22;46776;-82
2023/11/07 03:46:02;;;;;;;;;1.00;1.00;;;;;13.08;79.41;100323.66;6206092;23;45052;-81
2023/11/07 03:48:30;;;;;;;;;3.00;1.67;;;;;12.98;79.59;100306.78;6178919;22;45201;-82
2023/11/07 03:50:56;;;;;;;;;0.67;0.67;;;;;13.05;79.02;100322.78;6156087;22;45150;-81
2023/11/07 03:53:21;;;;;;;;;2.67;2.33;;;;;13.05;79.43;100323.69;6207002;22;45020;-81
2023/11/07 03:55:48;;;;;;;;;1.00;1.00;;;;;13.10;79.62;100332.56;6207496;22;45205;-81
2023/11/07 03:58:13;;;;;;;;;1.00;1.00;;;;;13.08;79.44;100317.44;6206259;22;44814;-82
2023/11/07 04:00:40;;;;;;;;;1.00;1.00;;;;;13.13;79.48;100329.91;6206812;22;44884;-81
2023/11/07 04:03:06;;;;;;;;;2.00;2.00;;;;;13.18;79.17;100337.88;6206742;22;45195;-81
2023/11/07 04:05:32;;;;;;;;;1.00;1.00;;;;;13.16;79.04;100327.19;6180378;23;44811;-81
2023/11/07 04:07:57;;;;;;;;;2.00;2.00;;;;;13.16;79.06;100337.00;6207626;23;45003;-81
2023/11/07 04:10:25;;;;;;;;;1.00;1.00;;;;;13.25;78.90;100336.06;6181422;22;44824;-82
2023/11/07 04:12:51;;;;;;;;;2.33;2.00;;;;;13.09;79.27;100340.56;6181059;22;46967;-82
2023/11/07 04:15:18;;;;;;;;;3.00;3.00;;;;;13.19;79.52;100337.88;6206641;22;44828;-81
2023/11/07 04:17:46;;;;;;;;;3.00;2.00;;;;;13.06;79.42;100356.59;6207719;22;44760;-81
2023/11/07 04:20:12;;;;;;;;;2.00;2.00;;;;;13.02;79.16;100348.59;6207597;22;44987;-82
2023/11/07 04:22:38;;;;;;;;;2.00;2.00;;;;;13.01;79.24;100354.84;6180085;22;46997;-81
2023/11/07 04:25:06;;;;;;;;;2.00;2.00;;;;;12.96;79.29;100359.28;6207540;22;44836;-81
2023/11/07 04:27:32;;;;;;;;;1.67;1.67;;;;;12.96;79.16;100366.41;6179352;22;45050;-80
2023/11/07 04:29:58;;;;;;;;;3.00;1.25;;;;;12.91;78.84;100358.41;6180752;22;44939;-81
2023/11/07 04:32:24;;;;;;;;;2.67;2.67;;;;;12.91;79.20;100363.75;6204479;22;45207;-81
2023/11/07 04:34:52;;;;;;;;;2.67;2.67;;;;;13.07;79.20;100371.72;6180150;22;44801;-81
2023/11/07 04:37:18;;;;;;;;;2.33;1.00;;;;;12.87;79.04;100366.44;6206668;22;44666;-81
2023/11/07 04:39:43;;;;;;;;;2.33;2.00;;;;;12.88;79.09;100377.09;6202882;22;44804;-82
2023/11/07 04:42:09;;;;;;;;;3.67;3.33;;;;;12.86;78.84;100370.88;6206599;22;45502;-81
2023/11/07 04:44:35;;;;;;;;;1.00;1.00;;;;;12.84;78.93;100377.09;6207633;22;45092;-82
2023/11/07 04:47:05;;;;;;;;;2.00;2.00;;;;;12.80;79.17;100382.47;6180645;22;44822;-81
2023/11/07 04:49:33;;;;;;;;;4.67;3.00;;;;;12.77;79.23;100392.25;6207662;22;45097;-82
2023/11/07 04:51:59;;;;;;;;;1.67;1.67;;;;;12.76;78.97;100386.00;6204073;23;45015;-82
2023/11/07 04:54:25;;;;;;;;;1.00;1.00;;;;;12.77;79.23;100371.78;6205522;23;44834;-81
2023/11/07 04:56:54;;;;;;;;;3.00;3.00;;;;;12.66;78.94;100383.34;6180752;23;44800;-81
2023/11/07 04:59:24;;;;;;;;;2.00;2.00;;;;;12.67;79.23;100391.34;6169918;22;44759;-81
2023/11/07 05:01:51;;;;;;;;;1.67;1.67;;;;;12.60;79.15;100379.81;6176323;23;45199;-81
2023/11/07 05:04:17;;;;;;;;;2.33;2.33;;;;;12.57;78.96;100385.13;6150156;23;45050;-81
2023/11/07 05:06:43;;;;;;;;;2.00;2.00;;;;;12.58;79.32;100391.34;6150457;23;44837;-82
2023/11/07 05:09:12;;;;;;;;;2.67;2.67;;;;;12.70;79.68;100401.13;6150602;23;44825;-82
2023/11/07 05:11:39;;;;;;;;;2.00;2.00;;;;;12.48;79.39;100392.22;6150562;23;47154;-82
2023/11/07 05:14:05;;;;;;;;;2.00;2.00;;;;;12.49;79.39;100402.91;6126211;23;44902;-82
2023/11/07 05:16:31;;;;;;;;;2.00;2.00;;;;;12.45;80.04;100394.91;6150146;23;44875;-82
2023/11/07 05:18:56;;;;;;;;;5.00;3.00;;;;;12.38;80.07;100385.97;6125832;23;44780;-81
2023/11/07 05:22:03;;;;;;;;;3.00;3.00;;;;;12.72;79.29;100400.22;6176997;23;45008;-81
2023/11/07 05:24:29;;;;;;;;;4.00;3.33;;;;;12.44;79.92;100398.44;6176169;23;44866;-80
2023/11/07 05:26:55;;;;;;;;;2.00;2.00;;;;;12.41;79.57;100402.00;6175786;23;44818;-82
2023/11/07 05:29:21;;;;;;;;;4.33;3.00;;;;;12.40;79.60;100395.78;6129639;22;46407;-81
2023/11/07 05:31:47;;;;;;;;;4.33;3.33;;;;;12.39;79.68;100406.44;6207708;22;44920;-81
2023/11/07 05:36:47;;;;;;;;;3.33;3.33;;;;;12.32;79.80;100420.66;6235075;22;44835;-82
2023/11/07 05:39:15;;;;;;;;;3.00;2.00;;;;;12.32;79.58;100420.66;6211454;22;44874;-82
2023/11/07 05:41:41;;;;;;;;;3.67;3.67;;;;;12.30;79.34;100419.75;6211380;22;47196;-82
2023/11/07 05:44:06;;;;;;;;;3.00;3.00;;;;;12.33;79.51;100431.31;6211421;22;44744;-82
2023/11/07 05:46:32;;;;;;;;;4.00;3.67;;;;;12.33;79.50;100436.66;6238486;22;44756;-82
2023/11/07 05:48:57;;;;;;;;;3.00;2.00;;;;;12.36;79.31;100438.44;6211844;22;45234;-82
2023/11/07 05:51:23;;;;;;;;;2.67;2.67;;;;;12.41;79.54;100437.56;6186693;22;47154;-82
2023/11/07 05:53:55;;;;;;;;;6.00;3.00;;;;;12.32;79.57;100426.91;6237944;22;44843;-82
2023/11/07 05:56:21;;;;;;;;;2.00;2.00;;;;;12.33;79.51;100427.78;6211128;22;44852;-82
2023/11/07 05:58:46;;;;;;;;;3.33;2.33;;;;;12.40;79.40;100440.22;6237819;22;44834;-82
2023/11/07 06:01:12;;;;;;;;;2.67;2.67;;;;;12.44;79.41;100444.66;6210821;22;46904;-82
2023/11/07 06:03:38;;;;;;;;;3.00;3.00;;;;;12.44;79.29;100443.78;6207784;22;44960;-82
2023/11/07 06:06:03;;;;;;;;;3.00;3.00;;;;;12.44;79.47;100441.13;6234831;22;45118;-82
2023/11/07 06:08:30;;;;;;;;;4.00;4.00;;;;;12.31;79.32;100430.44;6236401;22;44860;-81
2023/11/07 06:10:55;;;;;;;;;2.00;2.00;;;;;12.29;79.57;100431.31;6236388;22;47308;-81
2023/11/07 06:13:22;;;;;;;;;7.00;3.33;;;;;12.43;79.28;100428.69;6235825;22;44866;-80
2023/11/07 06:15:47;;;;;;;;;8.33;7.00;;;;;12.38;79.01;100442.00;6191151;22;44961;-82
2023/11/07 06:18:13;;;;;;;;;4.00;4.00;;;;;12.39;78.69;100442.00;6205768;22;44860;-81
2023/11/07 06:20:38;;;;;;;;;5.67;4.00;;;;;12.29;78.40;100420.66;6204125;22;46990;-81
2023/11/07 06:23:06;;;;;;;;;3.00;3.00;;;;;12.33;78.58;100422.44;6204161;22;44895;-82
2023/11/07 06:25:33;;;;;;;;;4.00;2.67;;;;;12.59;78.80;100455.38;6204665;22;44871;-82
2023/11/07 06:27:59;;;;;;;;;3.00;3.00;;;;;12.54;78.68;100448.25;6205531;22;45312;-81
2023/11/07 06:30:29;;;;;;;;;1.50;0.00;;;;;12.77;78.18;100462.50;6204340;22;45227;-81
2023/11/07 06:32:56;;;;;;;;;2.00;2.00;;;;;12.70;77.77;100470.50;6203551;22;45288;-82
2023/11/07 06:35:22;;;;;;;;;6.33;6.33;;;;;12.67;77.76;100466.06;6229921;22;44785;-83
2023/11/07 06:41:09;;;;;;;;;4.67;3.67;;;;;12.66;77.16;100468.72;6201262;22;45462;-86
2023/11/07 06:43:35;;;;;;;;;3.00;3.00;;;;;12.64;77.18;100473.16;6186860;23;46410;-87
2023/11/07 06:46:01;;;;;;;;;4.33;4.33;;;;;12.60;77.62;100482.94;6211950;22;45448;-85
2023/11/07 06:48:28;;;;;;;;;7.67;4.00;;;;;12.47;77.36;100476.69;6196029;22;44914;-83
2023/11/07 06:50:56;;;;;;;;;3.00;3.00;;;;;12.67;77.69;100486.53;6205575;22;45622;-82
2023/11/07 06:53:21;;;;;;;;;3.00;3.00;;;;;12.55;77.39;100484.72;6204396;22;45375;-82
2023/11/07 06:55:50;;;;;;;;;4.00;2.33;;;;;12.49;77.26;100482.91;6204250;22;44875;-82
2023/11/07 06:58:16;;;;;;;;;5.00;3.67;;;;;12.48;77.46;100486.50;6205899;22;45284;-81
2023/11/07 07:00:42;;;;;;;;;2.33;2.33;;;;;12.45;77.32;100485.59;6206441;23;45163;-82
2023/11/07 07:03:08;;;;;;;;;2.00;2.00;;;;;12.54;77.21;100502.50;6204470;22;44790;-81
2023/11/07 07:05:34;;;;;;;;;3.33;3.00;;;;;12.47;76.96;100489.16;6206879;22;44732;-82
2023/11/07 07:08:00;;;;;;;;;2.33;2.33;;;;;12.56;77.19;100503.41;6203622;22;44834;-82
2023/11/07 07:10:26;;;;;;;;;3.33;3.33;;;;;12.54;77.03;100496.25;6205043;22;46665;-82
2023/11/07 07:12:54;;;;;;;;;3.00;3.00;;;;;12.76;77.01;100494.50;6204239;22;44927;-81
2023/11/07 07:15:20;;;;;;;;;3.33;3.33;;;;;12.59;76.92;100497.16;6201678;22;44836;-82
2023/11/07 07:20:24;;;;;;;;;6.00;6.00;;;;;12.75;76.66;100519.44;6232192;22;45133;-82
2023/11/07 07:25:26;;;;;;;;;3.00;3.00;;;;;12.41;76.88;100511.34;6219670;22;45188;-83
2023/11/07 07:27:53;;;;;;;;;7.67;2.33;;;;;12.53;76.92;100523.84;6208981;22;44717;-82
2023/11/07 07:30:21;;;;;;;;;4.33;4.00;;;;;12.56;76.60;100523.81;6235840;22;44993;-83
2023/11/07 07:32:50;;;;;;;;;2.00;2.00;;;;;12.75;76.59;100516.78;6210008;22;44835;-82
2023/11/07 07:36:04;;;;;;;;;5.33;5.33;;;;;12.90;76.43;100522.09;6234389;22;44818;-82
2023/11/07 07:38:35;;;;;;;;;6.00;3.33;;;;;12.88;76.53;100529.22;6230651;22;45010;-82
2023/11/07 07:41:01;;;;;;;;;3.00;3.00;;;;;12.79;75.75;100530.09;6205621;22;45270;-82
2023/11/07 07:43:27;;;;;;;;;2.67;2.67;;;;;12.73;75.53;100534.56;6233176;22;45161;-82
2023/11/07 07:45:53;;;;;;;;;2.33;2.33;;;;;12.72;75.76;100538.09;6233444;22;45313;-83
2023/11/07 07:49:10;;;;;;;;;6.00;2.00;;;;;13.05;75.71;100549.69;6209082;22;44877;-83
2023/11/07 07:51:38;;;;;;;;;4.33;4.33;;;;;12.77;75.52;100547.00;6208859;22;47712;-82
2023/11/07 07:54:05;;;;;;;;;2.00;2.00;;;;;12.92;75.49;100552.34;6210208;22;44885;-82
2023/11/07 07:56:31;;;;;;;;;4.00;3.00;;;;;12.93;75.15;100550.59;6237380;22;44771;-82
2023/11/07 07:58:59;;;;;;;;;3.67;3.67;;;;;13.00;75.43;100561.25;6237238;22;45102;-82
2023/11/07 08:01:25;;;;;;;;;7.00;2.67;;;;;13.11;75.28;100565.72;6236306;22;44989;-82
2023/11/07 08:03:55;;;;;;;;;3.67;3.33;;;;;13.35;75.19;100567.53;6238043;22;44649;-83
2023/11/07 08:06:20;;;;;;;;;6.67;4.00;;;;;13.17;74.82;100568.44;6237634;22;44746;-82
2023/11/07 08:08:48;;;;;;;;;4.00;3.00;;;;;13.22;74.88;100571.97;6212355;22;44965;-81
2023/11/07 08:11:21;;;;;;;;;3.67;3.67;;;;;13.56;74.81;100572.88;6199636;22;47419;-83
2023/11/07 08:14:00;;;;;;;;;3.67;3.00;;;;;13.55;74.60;100554.19;6237341;22;44975;-82
2023/11/07 08:16:34;;;;;;;;;3.33;3.33;;;;;13.52;74.23;100539.06;6238493;22;44707;-82
2023/11/07 08:27:04;;;;;;;;;4.67;4.67;;;;;13.47;74.32;100582.69;6158636;22;46380;-81
2023/11/07 08:29:33;;;;;;;;;3.00;3.00;;;;;13.44;74.01;100574.69;6239864;22;44768;-82
2023/11/07 08:32:29;;;;;;;;;4.00;3.00;;;;;13.46;74.35;100564.91;6240987;22;45338;-81
2023/11/07 08:53:37;;;;;;;;;;;;;;;;;;;;;
2023/11/07 09:29:13;;;;;;;;;7.67;6.33;;;;;14.12;71.59;100632.50;6187885;22;46248;-81
2023/11/07 09:31:43;;;;;;;;;3.33;3.33;;;;;13.94;72.04;100621.84;6196800;22;45202;-82
2023/11/07 09:34:15;;;;;;;;;6.67;4.67;;;;;13.91;71.96;100604.00;6225525;22;46895;-82
2023/11/07 09:44:28;;;;;;;;;8.00;5.00;;;;;14.01;71.21;100640.53;6226361;22;45765;-82
2023/11/07 09:52:14;;;;;;;;;4.67;4.67;;;;;14.18;70.82;100634.28;6212731;22;44933;-81
2023/11/07 10:13:01;;;;;;;;;5.33;5.33;;;;;14.69;70.26;100652.88;6198719;22;45972;-84
2023/11/07 10:24:50;;;;;;;;;3.00;3.00;;;;;14.71;69.43;100617.16;6197036;22;45384;-82
2023/11/07 10:27:27;;;;;;;;;4.00;3.75;;;;;14.78;69.66;100661.78;6167798;23;44831;-82
2023/11/07 10:29:56;;;;;;;;;5.00;3.67;;;;;14.70;69.20;100655.53;6189958;23;45510;-82
2023/11/07 10:32:24;;;;;;;;;4.67;3.00;;;;;14.83;69.26;100637.63;6192342;22;47220;-82
2023/11/07 10:38:34;;;;;;;;;3.00;3.00;;;;;14.84;68.73;100623.34;6195427;23;45344;-85
2023/11/07 10:41:28;;;;;;;;;3.00;3.00;;;;;15.15;68.48;100668.72;6195388;23;45198;-84
2023/11/07 10:44:23;;;;;;;;;4.00;2.33;;;;;15.17;67.86;100667.81;6103744;23;47183;-84
2023/11/07 10:46:50;;;;;;;;;6.33;1.33;;;;;14.90;67.93;100658.13;6129983;23;45570;-84
2023/11/07 10:49:22;;;;;;;;;3.00;2.67;;;;;15.09;68.23;100658.94;6131971;23;45406;-84
2023/11/07 10:52:10;;;;;;;;;4.00;4.00;;;;;14.93;67.76;100634.00;6107454;23;45358;-84
2023/11/07 10:54:56;;;;;;;;;2.00;1.25;;;;;15.23;67.74;100666.88;6108128;23;46925;-85
2023/11/07 10:57:33;;;;;;;;;5.67;3.33;;;;;15.01;67.93;100644.69;6108131;23;45454;-84
2023/11/07 11:00:20;;;;;;;;;4.00;4.00;;;;;15.27;67.70;100665.06;6107269;23;45363;-83
2023/11/07 11:03:04;;;;;;;;;3.33;2.67;;;;;15.16;67.01;100630.31;6133424;23;44847;-85
2023/11/07 11:05:37;;;;;;;;;3.00;3.00;;;;;15.16;67.82;100643.69;6109655;23;46892;-84
2023/11/07 11:08:20;;;;;;;;;4.00;2.00;;;;;15.28;67.88;100665.03;6133613;23;45371;-85
2023/11/07 11:10:52;;;;;;;;;4.00;3.67;;;;;15.14;67.37;100626.75;6136449;23;45515;-84
2023/11/07 11:15:57;;;;;;;;;4.00;3.33;;;;;15.27;67.44;100643.63;6146904;22;45133;-82
2023/11/07 11:18:45;;;;;;;;;3.67;3.67;;;;;15.47;66.87;100640.78;6120169;23;44842;-81
2023/11/07 11:21:33;;;;;;;;;5.00;3.00;;;;;15.37;66.40;100616.75;6121347;23;44862;-82
2023/11/07 11:24:37;;;;;;;;;2.00;1.33;;;;;15.43;66.55;100636.34;6143068;22;44955;-80
2023/11/07 11:31:03;;;;;;;;;4.00;4.00;;;;;15.49;66.66;100665.78;6180407;22;45958;-82
2023/11/07 11:36:39;;;;;;;;;2.67;2.00;;;;;15.78;66.30;100646.84;6175118;22;46496;-85
2023/11/07 11:39:36;;;;;;;;;2.67;2.33;;;;;15.51;66.10;100607.72;6226068;22;48138;-84
2023/11/07 11:42:09;;;;;;;;;3.00;3.00;;;;;15.38;65.90;100621.22;6106565;23;45765;-83
2023/11/07 11:53:42;;;;;;;;;3.50;2.50;;;;;15.85;65.86;100658.41;6216196;22;45494;-83
2023/11/07 11:56:38;;;;;;;;;2.25;2.25;;;;;15.68;66.20;100612.94;6205257;22;44821;-85
2023/11/07 11:59:11;;;;;;;;;2.25;2.25;;;;;15.55;65.88;100607.69;6104688;23;45252;-83
2023/11/07 12:02:03;;;;;;;;;3.25;2.75;;;;;15.78;65.82;100614.66;6129898;23;45395;-82
2023/11/07 12:04:53;;;;;;;;;6.00;3.00;;;;;15.89;65.68;100649.41;6135983;23;44704;-84
2023/11/07 12:07:21;;;;;;;;;2.00;2.00;;;;;15.55;65.12;100622.84;6139960;23;44815;-83
2023/11/07 12:10:20;;;;;;;;;5.00;3.33;;;;;15.80;64.93;100651.28;6143376;23;44806;-82
2023/11/07 14:13:12;;;;;;;;;4.00;2.00;;;;;16.87;57.76;100610.75;6208921;22;46347;-81
2023/11/07 14:16:01;;;;;;;;;1.00;1.00;;;;;16.88;57.76;100617.88;6231720;22;45337;-84
2023/11/07 14:47:01;;;;;;;;;3.25;2.00;;;;;16.76;57.12;100631.44;6155600;22;45876;-86
2023/11/07 14:50:03;;;;;;;;;;;;;;;;;;;;;
2023/11/07 14:53:07;;;;;;;;;3.00;0.25;;;;;16.57;56.65;100629.00;6254442;22;66764;-85
2023/11/07 14:56:37;;;;;;;;;0.00;0.00;;;;;16.53;57.26;100640.69;6213660;22;46879;-85
2023/11/07 15:03:05;;;;;;;;;1.75;1.75;;;;;16.42;57.83;100637.25;6257083;22;45391;-83
2023/11/07 15:05:37;;;;;;;;;1.00;1.00;;;;;16.25;57.93;100633.88;6194562;22;46656;-86
2023/11/07 15:08:30;;;;;;;;;2.25;1.50;;;;;16.36;57.68;100661.44;6163112;22;45227;-83
2023/11/07 15:11:00;;;;;;;;;2.00;0.75;;;;;15.90;58.31;100608.31;6227744;22;44883;-82
2023/11/07 15:17:18;;;;;;;;;2.00;2.00;;;;;16.27;58.67;100645.47;6215446;22;44732;-82
2023/11/07 15:20:14;;;;;;;;;2.00;1.75;;;;;16.27;58.49;100651.72;6200822;22;48214;-82
2023/11/07 15:23:00;;;;;;;;;2.50;1.75;;;;;16.37;58.61;100649.81;6206932;22;44790;-83
2023/11/07 15:26:24;;;;;;;;;1.00;1.00;;;;;16.12;58.60;100608.97;6200350;22;44815;-82
2023/11/07 15:28:49;;;;;;;;;3.25;3.25;;;;;15.99;58.84;100638.56;6195308;22;45540;-84
2023/11/07 15:31:58;;;;;;;;;2.00;2.00;;;;;16.16;58.78;100622.31;6222789;22;46032;-82
2023/11/07 15:42:02;;;;;;;;;2.50;2.00;;;;;16.09;58.76;100642.06;5963504;23;44937;-83
2023/11/07 15:51:57;;;;;;;;;1.25;1.25;;;;;16.35;58.50;100671.31;5992472;23;44846;-82
2023/11/07 15:54:31;;;;;;;;;1.25;1.25;;;;;16.22;58.91;100660.72;6013791;23;45310;-82
2023/11/07 21:51:55;;;;;;;;;3.00;3.00;;;;;13.60;71.64;100851.69;6096463;22;45541;31
2023/11/07 21:54:27;;;;;;;;;7.00;4.00;;;;;13.56;71.75;100852.56;6187735;22;44803;-85
2023/11/07 21:56:54;;;;;;;;;3.67;3.67;;;;;13.36;72.29;100837.34;6188987;22;45346;-85
2023/11/07 21:59:20;;;;;;;;;4.00;4.00;;;;;13.28;72.34;100847.06;6188302;22;45319;-86
2023/11/07 22:01:46;;;;;;;;;4.67;4.33;;;;;13.16;72.78;100818.53;6187328;23;45392;-85
2023/11/07 22:05:04;;;;;;;;;6.00;4.00;;;;;13.55;72.52;100843.66;6188040;23;45668;-84
2023/11/07 22:07:30;;;;;;;;;4.00;4.00;;;;;13.23;72.51;100848.84;6186036;23;45268;-85
2023/11/07 22:09:56;;;;;;;;;5.00;5.00;;;;;13.36;73.22;100852.50;6186627;23;48094;-85
2023/11/07 22:12:22;;;;;;;;;5.67;3.00;;;;;13.18;73.53;100854.13;6188751;23;45315;-85
2023/11/07 22:14:54;;;;;;;;;4.67;4.00;;;;;13.14;73.44;100857.69;6186929;23;45346;-84
2023/11/07 22:17:19;;;;;;;;;6.00;3.00;;;;;13.14;73.35;100857.69;6185226;22;45441;-81
2023/11/07 22:19:45;;;;;;;;;3.00;3.00;;;;;13.14;73.79;100860.34;6174354;22;47147;-81
2023/11/07 22:22:11;;;;;;;;;4.00;4.00;;;;;13.11;73.36;100860.34;6192372;22;45282;-86
2023/11/07 22:24:36;;;;;;;;;3.00;3.00;;;;;13.13;73.40;100868.38;6187379;23;44870;-86
2023/11/07 22:27:09;;;;;;;;;5.00;3.67;;;;;13.10;73.72;100863.00;6195501;23;44896;-82
2023/11/07 22:32:57;;;;;;;;;4.33;3.00;;;;;12.99;73.89;100858.50;6202300;22;44799;-82
2023/11/07 22:35:22;;;;;;;;;7.00;4.67;;;;;12.97;74.47;100860.25;6185341;22;44900;-82
2023/11/07 22:37:49;;;;;;;;;6.00;4.00;;;;;12.95;74.18;100867.38;6231785;22;44762;-81
2023/11/07 22:40:14;;;;;;;;;4.00;3.33;;;;;12.93;74.20;100869.16;6230667;22;45148;-81
2023/11/07 22:42:46;;;;;;;;;7.00;4.00;;;;;12.90;74.92;100855.75;6205038;22;44884;-81
2023/11/07 22:45:11;;;;;;;;;2.00;2.00;;;;;12.85;75.12;100859.31;6204099;22;44858;-82
2023/11/07 22:47:38;;;;;;;;;2.33;2.33;;;;;12.83;74.85;100855.75;6230145;22;44893;-81